sensor_id;sensor_type;location;lat;lon;timestamp;temperature;humidity
15087;DHT22;7642;48.478;8.952;2022-08-19T00:01:16;20.60;99.90
15087;DHT22;7642;48.478;8.952;2022-08-19T00:03:41;20.50;99.90
15087;DHT22;7642;48.478;8.952;2022-08-19T00:06:07;20.60;99.90
15087;DHT22;7642;48.478;8.952;2022-08-19T00:08:33;20.50;99.90
15087;DHT22;7642;48.478;8.952;2022-08-19T00:10:59;20.60;99.90
15087;DHT22;7642;48.478;8.952;2022-08-19T00:13:24;20.50;99.90
15087;DHT22;7642;48.478;8.952;2022-08-19T00:15:50;20.40;99.90
15087;DHT22;7642;48.478;8.952;2022-08-19T00:18:16;20.40;99.90
15087;DHT22;7642;48.478;8.952;2022-08-19T00:20:42;20.30;99.90
15087;DHT22;7642;48.478;8.952;2022-08-19T00:23:07;20.30;99.90
15087;DHT22;7642;48.478;8.952;2022-08-19T00:25:33;20.20;99.90
15087;DHT22;7642;48.478;8.952;2022-08-19T00:27:59;20.20;99.90
15087;DHT22;7642;48.478;8.952;2022-08-19T00:30:25;20.20;99.90
15087;DHT22;7642;48.478;8.952;2022-08-19T00:32:53;20.00;99.90
15087;DHT22;7642;48.478;8.952;2022-08-19T00:35:20;19.90;99.90
15087;DHT22;7642;48.478;8.952;2022-08-19T00:37:47;19.90;99.90
15087;DHT22;7642;48.478;8.952;2022-08-19T00:40:14;19.80;99.90
15087;DHT22;7642;48.478;8.952;2022-08-19T00:42:41;19.80;99.90
15087;DHT22;7642;48.478;8.952;2022-08-19T00:45:16;19.70;99.90
15087;DHT22;7642;48.478;8.952;2022-08-19T00:47:44;19.60;99.90
15087;DHT22;7642;48.478;8.952;2022-08-19T00:50:11;19.60;99.90
15087;DHT22;7642;48.478;8.952;2022-08-19T00:52:41;19.70;99.90
15087;DHT22;7642;48.478;8.952;2022-08-19T00:55:09;19.70;99.90
15087;DHT22;7642;48.478;8.952;2022-08-19T00:57:39;19.60;99.90
15087;DHT22;7642;48.478;8.952;2022-08-19T01:00:12;19.60;99.90
15087;DHT22;7642;48.478;8.952;2022-08-19T01:02:40;19.70;99.90
15087;DHT22;7642;48.478;8.952;2022-08-19T01:05:10;19.70;99.90
15087;DHT22;7642;48.478;8.952;2022-08-19T01:07:37;19.50;99.90
15087;DHT22;7642;48.478;8.952;2022-08-19T01:10:06;19.60;99.90
15087;DHT22;7642;48.478;8.952;2022-08-19T01:12:32;19.50;99.90
15087;DHT22;7642;48.478;8.952;2022-08-19T01:14:59;19.50;99.90
15087;DHT22;7642;48.478;8.952;2022-08-19T01:17:25;19.50;99.90
15087;DHT22;7642;48.478;8.952;2022-08-19T01:19:51;19.40;99.90
15087;DHT22;7642;48.478;8.952;2022-08-19T01:24:49;19.30;99.90
15087;DHT22;7642;48.478;8.952;2022-08-19T01:27:15;19.20;99.90
15087;DHT22;7642;48.478;8.952;2022-08-19T01:29:42;19.20;99.90
15087;DHT22;7642;48.478;8.952;2022-08-19T01:32:13;19.10;99.90
15087;DHT22;7642;48.478;8.952;2022-08-19T01:34:40;19.10;99.90
15087;DHT22;7642;48.478;8.952;2022-08-19T01:37:11;19.70;99.90
15087;DHT22;7642;48.478;8.952;2022-08-19T01:39:38;18.90;99.90
15087;DHT22;7642;48.478;8.952;2022-08-19T01:42:06;19.00;99.90
15087;DHT22;7642;48.478;8.952;2022-08-19T01:44:35;18.80;99.90
15087;DHT22;7642;48.478;8.952;2022-08-19T01:47:01;18.70;99.90
15087;DHT22;7642;48.478;8.952;2022-08-19T01:49:27;18.70;99.90
15087;DHT22;7642;48.478;8.952;2022-08-19T01:51:53;18.70;99.90
15087;DHT22;7642;48.478;8.952;2022-08-19T01:54:22;18.70;99.90
15087;DHT22;7642;48.478;8.952;2022-08-19T01:56:48;18.70;99.90
15087;DHT22;7642;48.478;8.952;2022-08-19T01:59:17;18.60;99.90
15087;DHT22;7642;48.478;8.952;2022-08-19T02:01:44;18.70;99.90
15087;DHT22;7642;48.478;8.952;2022-08-19T02:04:10;18.70;99.90
15087;DHT22;7642;48.478;8.952;2022-08-19T02:06:36;18.70;99.90
15087;DHT22;7642;48.478;8.952;2022-08-19T02:09:03;18.80;99.90
15087;DHT22;7642;48.478;8.952;2022-08-19T02:11:31;18.80;99.90
15087;DHT22;7642;48.478;8.952;2022-08-19T02:14:00;18.80;99.90
15087;DHT22;7642;48.478;8.952;2022-08-19T02:16:27;18.80;99.90
15087;DHT22;7642;48.478;8.952;2022-08-19T02:18:53;18.80;99.90
15087;DHT22;7642;48.478;8.952;2022-08-19T02:21:20;18.70;99.90
15087;DHT22;7642;48.478;8.952;2022-08-19T02:23:47;18.70;99.90
15087;DHT22;7642;48.478;8.952;2022-08-19T02:26:13;18.70;99.90
15087;DHT22;7642;48.478;8.952;2022-08-19T02:28:40;18.70;99.90
15087;DHT22;7642;48.478;8.952;2022-08-19T02:31:10;18.60;99.90
15087;DHT22;7642;48.478;8.952;2022-08-19T02:33:36;18.60;99.90
15087;DHT22;7642;48.478;8.952;2022-08-19T02:36:04;18.50;99.90
15087;DHT22;7642;48.478;8.952;2022-08-19T02:38:30;18.50;99.90
15087;DHT22;7642;48.478;8.952;2022-08-19T02:41:00;18.50;99.90
15087;DHT22;7642;48.478;8.952;2022-08-19T02:43:28;18.60;99.90
15087;DHT22;7642;48.478;8.952;2022-08-19T02:45:55;18.50;99.90
15087;DHT22;7642;48.478;8.952;2022-08-19T02:48:22;18.50;99.90
15087;DHT22;7642;48.478;8.952;2022-08-19T02:50:51;18.50;99.90
15087;DHT22;7642;48.478;8.952;2022-08-19T02:53:25;18.50;99.90
15087;DHT22;7642;48.478;8.952;2022-08-19T02:55:51;18.50;99.90
15087;DHT22;7642;48.478;8.952;2022-08-19T02:58:19;18.50;99.90
15087;DHT22;7642;48.478;8.952;2022-08-19T03:00:49;18.50;99.90
15087;DHT22;7642;48.478;8.952;2022-08-19T03:03:16;18.50;99.90
15087;DHT22;7642;48.478;8.952;2022-08-19T03:05:42;18.50;99.90
15087;DHT22;7642;48.478;8.952;2022-08-19T03:08:09;18.50;99.90
15087;DHT22;7642;48.478;8.952;2022-08-19T03:10:45;18.50;99.90
15087;DHT22;7642;48.478;8.952;2022-08-19T03:13:16;18.40;99.90
15087;DHT22;7642;48.478;8.952;2022-08-19T03:15:45;18.50;99.90
15087;DHT22;7642;48.478;8.952;2022-08-19T03:18:11;18.50;99.90
15087;DHT22;7642;48.478;8.952;2022-08-19T03:20:41;18.50;99.90
15087;DHT22;7642;48.478;8.952;2022-08-19T03:23:07;18.50;99.90
15087;DHT22;7642;48.478;8.952;2022-08-19T03:25:37;18.50;99.90
15087;DHT22;7642;48.478;8.952;2022-08-19T03:28:03;18.60;99.90
15087;DHT22;7642;48.478;8.952;2022-08-19T03:30:28;18.50;99.90
15087;DHT22;7642;48.478;8.952;2022-08-19T03:32:54;18.40;99.90
15087;DHT22;7642;48.478;8.952;2022-08-19T03:35:20;18.50;99.90
15087;DHT22;7642;48.478;8.952;2022-08-19T03:37:45;18.50;99.90
15087;DHT22;7642;48.478;8.952;2022-08-19T03:40:11;18.40;99.90
15087;DHT22;7642;48.478;8.952;2022-08-19T03:42:36;18.40;99.90
15087;DHT22;7642;48.478;8.952;2022-08-19T03:45:02;18.40;99.90
15087;DHT22;7642;48.478;8.952;2022-08-19T03:47:28;18.40;99.90
15087;DHT22;7642;48.478;8.952;2022-08-19T03:49:55;18.40;99.90
15087;DHT22;7642;48.478;8.952;2022-08-19T03:52:21;18.30;99.90
15087;DHT22;7642;48.478;8.952;2022-08-19T03:54:46;18.40;99.90
15087;DHT22;7642;48.478;8.952;2022-08-19T03:57:12;18.40;99.90
15087;DHT22;7642;48.478;8.952;2022-08-19T03:59:38;18.40;99.90
15087;DHT22;7642;48.478;8.952;2022-08-19T04:02:09;18.40;99.90
15087;DHT22;7642;48.478;8.952;2022-08-19T04:04:38;18.80;99.90
15087;DHT22;7642;48.478;8.952;2022-08-19T04:07:05;18.40;99.90
15087;DHT22;7642;48.478;8.952;2022-08-19T04:09:31;18.40;99.90
15087;DHT22;7642;48.478;8.952;2022-08-19T04:11:58;18.40;99.90
15087;DHT22;7642;48.478;8.952;2022-08-19T04:14:26;18.40;99.90
15087;DHT22;7642;48.478;8.952;2022-08-19T04:16:52;18.40;99.90
15087;DHT22;7642;48.478;8.952;2022-08-19T04:19:19;18.30;99.90
15087;DHT22;7642;48.478;8.952;2022-08-19T04:21:47;18.40;99.90
15087;DHT22;7642;48.478;8.952;2022-08-19T04:24:13;18.40;99.90
15087;DHT22;7642;48.478;8.952;2022-08-19T04:26:39;18.40;99.90
15087;DHT22;7642;48.478;8.952;2022-08-19T04:29:08;18.50;99.90
15087;DHT22;7642;48.478;8.952;2022-08-19T04:31:34;18.90;99.90
15087;DHT22;7642;48.478;8.952;2022-08-19T04:34:05;18.30;99.90
15087;DHT22;7642;48.478;8.952;2022-08-19T04:36:34;18.30;99.90
15087;DHT22;7642;48.478;8.952;2022-08-19T04:39:04;18.30;99.90
15087;DHT22;7642;48.478;8.952;2022-08-19T04:41:30;18.20;99.90
15087;DHT22;7642;48.478;8.952;2022-08-19T04:44:14;18.20;99.90
15087;DHT22;7642;48.478;8.952;2022-08-19T04:46:43;18.20;99.90
15087;DHT22;7642;48.478;8.952;2022-08-19T04:49:09;18.40;99.90
15087;DHT22;7642;48.478;8.952;2022-08-19T04:51:35;18.30;99.90
15087;DHT22;7642;48.478;8.952;2022-08-19T04:54:04;18.30;99.90
15087;DHT22;7642;48.478;8.952;2022-08-19T04:56:29;18.30;99.90
15087;DHT22;7642;48.478;8.952;2022-08-19T04:58:56;18.30;99.90
15087;DHT22;7642;48.478;8.952;2022-08-19T05:01:25;18.30;99.90
15087;DHT22;7642;48.478;8.952;2022-08-19T05:03:51;18.80;99.90
15087;DHT22;7642;48.478;8.952;2022-08-19T05:06:19;18.40;99.90
15087;DHT22;7642;48.478;8.952;2022-08-19T05:08:46;18.40;99.90
15087;DHT22;7642;48.478;8.952;2022-08-19T05:11:18;19.00;99.90
15087;DHT22;7642;48.478;8.952;2022-08-19T05:13:45;18.40;99.90
15087;DHT22;7642;48.478;8.952;2022-08-19T05:16:13;18.40;99.90
15087;DHT22;7642;48.478;8.952;2022-08-19T05:18:39;18.40;99.90
15087;DHT22;7642;48.478;8.952;2022-08-19T05:21:24;18.40;99.90
15087;DHT22;7642;48.478;8.952;2022-08-19T05:24:09;18.50;99.90
15087;DHT22;7642;48.478;8.952;2022-08-19T05:26:40;18.50;99.90
15087;DHT22;7642;48.478;8.952;2022-08-19T05:29:07;18.50;99.90
15087;DHT22;7642;48.478;8.952;2022-08-19T05:31:34;18.60;99.90
15087;DHT22;7642;48.478;8.952;2022-08-19T05:34:01;18.70;99.90
15087;DHT22;7642;48.478;8.952;2022-08-19T05:36:28;18.60;99.90
15087;DHT22;7642;48.478;8.952;2022-08-19T05:38:55;18.70;99.90
15087;DHT22;7642;48.478;8.952;2022-08-19T05:41:22;18.80;99.90
15087;DHT22;7642;48.478;8.952;2022-08-19T05:43:55;18.80;99.90
15087;DHT22;7642;48.478;8.952;2022-08-19T05:46:21;18.80;99.90
15087;DHT22;7642;48.478;8.952;2022-08-19T05:48:48;18.80;99.90
15087;DHT22;7642;48.478;8.952;2022-08-19T05:51:14;18.90;99.90
15087;DHT22;7642;48.478;8.952;2022-08-19T05:53:40;18.80;99.90
15087;DHT22;7642;48.478;8.952;2022-08-19T05:56:07;18.70;99.90
15087;DHT22;7642;48.478;8.952;2022-08-19T05:58:34;18.80;99.90
15087;DHT22;7642;48.478;8.952;2022-08-19T06:00:59;18.90;99.90
15087;DHT22;7642;48.478;8.952;2022-08-19T06:03:33;18.80;99.90
15087;DHT22;7642;48.478;8.952;2022-08-19T06:05:59;18.80;99.90
15087;DHT22;7642;48.478;8.952;2022-08-19T06:08:25;18.80;99.90
15087;DHT22;7642;48.478;8.952;2022-08-19T06:10:52;18.90;99.90
15087;DHT22;7642;48.478;8.952;2022-08-19T06:13:18;18.80;99.90
15087;DHT22;7642;48.478;8.952;2022-08-19T06:15:45;18.90;99.90
15087;DHT22;7642;48.478;8.952;2022-08-19T06:18:13;19.50;99.90
15087;DHT22;7642;48.478;8.952;2022-08-19T06:20:39;18.80;99.90
15087;DHT22;7642;48.478;8.952;2022-08-19T06:23:05;18.80;99.90
15087;DHT22;7642;48.478;8.952;2022-08-19T06:25:30;18.90;99.90
15087;DHT22;7642;48.478;8.952;2022-08-19T06:27:56;18.80;99.90
15087;DHT22;7642;48.478;8.952;2022-08-19T06:30:21;18.90;99.90
15087;DHT22;7642;48.478;8.952;2022-08-19T06:32:47;18.90;99.90
15087;DHT22;7642;48.478;8.952;2022-08-19T06:35:12;19.00;99.90
15087;DHT22;7642;48.478;8.952;2022-08-19T06:37:40;18.90;99.90
15087;DHT22;7642;48.478;8.952;2022-08-19T06:40:07;18.90;99.90
15087;DHT22;7642;48.478;8.952;2022-08-19T06:42:34;19.00;99.90
15087;DHT22;7642;48.478;8.952;2022-08-19T06:45:00;18.90;99.90
15087;DHT22;7642;48.478;8.952;2022-08-19T06:47:29;19.00;99.90
15087;DHT22;7642;48.478;8.952;2022-08-19T06:49:57;19.00;99.90
15087;DHT22;7642;48.478;8.952;2022-08-19T06:52:32;19.10;99.90
15087;DHT22;7642;48.478;8.952;2022-08-19T06:54:59;19.10;99.90
15087;DHT22;7642;48.478;8.952;2022-08-19T06:57:25;19.10;99.90
15087;DHT22;7642;48.478;8.952;2022-08-19T06:59:52;19.70;99.90
15087;DHT22;7642;48.478;8.952;2022-08-19T07:02:18;19.00;99.90
15087;DHT22;7642;48.478;8.952;2022-08-19T07:04:45;19.10;99.90
15087;DHT22;7642;48.478;8.952;2022-08-19T07:07:14;19.10;99.90
15087;DHT22;7642;48.478;8.952;2022-08-19T07:09:42;19.10;99.90
15087;DHT22;7642;48.478;8.952;2022-08-19T07:12:10;19.20;99.90
15087;DHT22;7642;48.478;8.952;2022-08-19T07:14:37;19.10;99.90
15087;DHT22;7642;48.478;8.952;2022-08-19T07:17:05;19.10;99.90
15087;DHT22;7642;48.478;8.952;2022-08-19T07:19:32;19.10;99.90
15087;DHT22;7642;48.478;8.952;2022-08-19T07:22:02;19.30;99.90
15087;DHT22;7642;48.478;8.952;2022-08-19T07:24:29;19.50;99.90
15087;DHT22;7642;48.478;8.952;2022-08-19T07:26:57;19.20;99.90
15087;DHT22;7642;48.478;8.952;2022-08-19T07:29:24;19.20;99.90
15087;DHT22;7642;48.478;8.952;2022-08-19T07:31:51;19.30;99.90
15087;DHT22;7642;48.478;8.952;2022-08-19T07:34:18;19.60;99.90
15087;DHT22;7642;48.478;8.952;2022-08-19T07:36:44;19.20;99.90
15087;DHT22;7642;48.478;8.952;2022-08-19T07:39:14;19.20;99.90
15087;DHT22;7642;48.478;8.952;2022-08-19T07:41:40;19.20;99.90
15087;DHT22;7642;48.478;8.952;2022-08-19T07:44:07;19.80;99.90
15087;DHT22;7642;48.478;8.952;2022-08-19T07:46:36;19.20;99.90
15087;DHT22;7642;48.478;8.952;2022-08-19T07:49:04;19.30;99.90
15087;DHT22;7642;48.478;8.952;2022-08-19T07:51:30;19.60;99.90
15087;DHT22;7642;48.478;8.952;2022-08-19T07:53:56;19.30;99.90
15087;DHT22;7642;48.478;8.952;2022-08-19T07:56:22;19.80;99.90
15087;DHT22;7642;48.478;8.952;2022-08-19T07:58:50;19.20;99.90
15087;DHT22;7642;48.478;8.952;2022-08-19T08:01:22;19.30;99.90
15087;DHT22;7642;48.478;8.952;2022-08-19T08:03:50;19.30;99.90
15087;DHT22;7642;48.478;8.952;2022-08-19T08:06:35;19.40;99.90
15087;DHT22;7642;48.478;8.952;2022-08-19T08:09:33;19.50;99.90
15087;DHT22;7642;48.478;8.952;2022-08-19T08:12:09;19.50;99.90
15087;DHT22;7642;48.478;8.952;2022-08-19T08:14:44;19.60;99.90
15087;DHT22;7642;48.478;8.952;2022-08-19T08:17:12;19.50;99.90
15087;DHT22;7642;48.478;8.952;2022-08-19T08:19:39;19.60;99.90
15087;DHT22;7642;48.478;8.952;2022-08-19T08:22:07;19.90;99.90
15087;DHT22;7642;48.478;8.952;2022-08-19T08:24:33;19.60;99.90
15087;DHT22;7642;48.478;8.952;2022-08-19T08:27:01;19.60;99.90
15087;DHT22;7642;48.478;8.952;2022-08-19T08:29:30;19.70;99.90
15087;DHT22;7642;48.478;8.952;2022-08-19T08:31:56;19.70;99.90
15087;DHT22;7642;48.478;8.952;2022-08-19T08:34:23;19.70;99.90
15087;DHT22;7642;48.478;8.952;2022-08-19T08:36:48;19.70;99.90
15087;DHT22;7642;48.478;8.952;2022-08-19T08:39:18;19.80;99.90
15087;DHT22;7642;48.478;8.952;2022-08-19T08:44:39;19.90;99.90
15087;DHT22;7642;48.478;8.952;2022-08-19T08:47:14;19.90;99.90
15087;DHT22;7642;48.478;8.952;2022-08-19T08:49:47;20.00;99.90
15087;DHT22;7642;48.478;8.952;2022-08-19T08:52:23;19.90;99.90
15087;DHT22;7642;48.478;8.952;2022-08-19T08:54:53;20.00;99.90
15087;DHT22;7642;48.478;8.952;2022-08-19T08:57:36;20.30;99.90
15087;DHT22;7642;48.478;8.952;2022-08-19T09:00:06;20.00;99.90
15087;DHT22;7642;48.478;8.952;2022-08-19T09:02:33;20.10;99.90
15087;DHT22;7642;48.478;8.952;2022-08-19T09:04:58;20.10;99.90
15087;DHT22;7642;48.478;8.952;2022-08-19T09:07:47;20.20;99.90
15087;DHT22;7642;48.478;8.952;2022-08-19T09:10:39;20.20;99.90
15087;DHT22;7642;48.478;8.952;2022-08-19T09:15:55;20.30;99.90
15087;DHT22;7642;48.478;8.952;2022-08-19T09:18:22;20.20;99.90
15087;DHT22;7642;48.478;8.952;2022-08-19T09:20:48;20.20;99.90
15087;DHT22;7642;48.478;8.952;2022-08-19T09:23:15;20.90;99.90
15087;DHT22;7642;48.478;8.952;2022-08-19T09:25:40;20.30;99.90
15087;DHT22;7642;48.478;8.952;2022-08-19T09:28:07;20.80;99.90
15087;DHT22;7642;48.478;8.952;2022-08-19T09:30:38;20.30;99.90
15087;DHT22;7642;48.478;8.952;2022-08-19T09:33:05;20.40;99.90
15087;DHT22;7642;48.478;8.952;2022-08-19T09:35:31;20.50;99.90
15087;DHT22;7642;48.478;8.952;2022-08-19T09:37:58;20.50;99.90
15087;DHT22;7642;48.478;8.952;2022-08-19T09:40:24;20.60;99.90
15087;DHT22;7642;48.478;8.952;2022-08-19T09:42:50;20.50;99.90
15087;DHT22;7642;48.478;8.952;2022-08-19T09:45:18;20.70;99.90
15087;DHT22;7642;48.478;8.952;2022-08-19T09:47:47;20.50;99.90
15087;DHT22;7642;48.478;8.952;2022-08-19T09:50:14;20.50;99.90
15087;DHT22;7642;48.478;8.952;2022-08-19T09:52:40;20.40;99.90
15087;DHT22;7642;48.478;8.952;2022-08-19T09:55:09;20.40;99.90
15087;DHT22;7642;48.478;8.952;2022-08-19T09:57:35;20.30;99.90
15087;DHT22;7642;48.478;8.952;2022-08-19T10:00:03;20.30;99.90
15087;DHT22;7642;48.478;8.952;2022-08-19T10:02:29;20.30;99.90
15087;DHT22;7642;48.478;8.952;2022-08-19T10:04:54;20.30;99.90
15087;DHT22;7642;48.478;8.952;2022-08-19T10:07:38;20.20;99.90
15087;DHT22;7642;48.478;8.952;2022-08-19T10:10:05;20.10;99.90
15087;DHT22;7642;48.478;8.952;2022-08-19T10:12:33;20.20;99.90
15087;DHT22;7642;48.478;8.952;2022-08-19T10:14:59;20.20;99.90
15087;DHT22;7642;48.478;8.952;2022-08-19T10:17:25;20.40;99.90
15087;DHT22;7642;48.478;8.952;2022-08-19T10:19:51;20.40;99.90
15087;DHT22;7642;48.478;8.952;2022-08-19T10:22:18;20.30;99.90
15087;DHT22;7642;48.478;8.952;2022-08-19T10:24:46;20.20;99.90
15087;DHT22;7642;48.478;8.952;2022-08-19T10:27:11;20.10;99.90
15087;DHT22;7642;48.478;8.952;2022-08-19T10:29:39;19.90;99.90
15087;DHT22;7642;48.478;8.952;2022-08-19T10:32:07;20.00;99.90
15087;DHT22;7642;48.478;8.952;2022-08-19T10:34:34;20.40;99.90
15087;DHT22;7642;48.478;8.952;2022-08-19T10:37:01;20.00;99.90
15087;DHT22;7642;48.478;8.952;2022-08-19T10:39:31;20.00;99.90
15087;DHT22;7642;48.478;8.952;2022-08-19T10:41:58;20.10;99.90
15087;DHT22;7642;48.478;8.952;2022-08-19T10:44:24;20.00;99.90
15087;DHT22;7642;48.478;8.952;2022-08-19T10:46:50;20.10;99.90
15087;DHT22;7642;48.478;8.952;2022-08-19T10:49:17;20.50;99.90
15087;DHT22;7642;48.478;8.952;2022-08-19T10:51:44;20.20;99.90
15087;DHT22;7642;48.478;8.952;2022-08-19T10:54:28;20.30;99.90
15087;DHT22;7642;48.478;8.952;2022-08-19T10:57:14;20.30;99.90
15087;DHT22;7642;48.478;8.952;2022-08-19T10:59:40;20.60;99.90
15087;DHT22;7642;48.478;8.952;2022-08-19T11:02:10;20.30;99.90
15087;DHT22;7642;48.478;8.952;2022-08-19T11:04:37;20.40;99.90
15087;DHT22;7642;48.478;8.952;2022-08-19T11:07:03;20.30;99.90
15087;DHT22;7642;48.478;8.952;2022-08-19T11:09:30;20.30;99.90
15087;DHT22;7642;48.478;8.952;2022-08-19T11:11:56;20.30;99.90
15087;DHT22;7642;48.478;8.952;2022-08-19T11:14:22;20.20;99.90
15087;DHT22;7642;48.478;8.952;2022-08-19T11:16:51;20.30;99.90
15087;DHT22;7642;48.478;8.952;2022-08-19T11:19:19;20.60;99.90
15087;DHT22;7642;48.478;8.952;2022-08-19T11:21:47;20.30;99.90
15087;DHT22;7642;48.478;8.952;2022-08-19T11:24:19;20.40;99.90
15087;DHT22;7642;48.478;8.952;2022-08-19T11:26:47;20.40;99.90
15087;DHT22;7642;48.478;8.952;2022-08-19T11:29:16;20.40;99.90
15087;DHT22;7642;48.478;8.952;2022-08-19T11:31:44;20.40;99.90
15087;DHT22;7642;48.478;8.952;2022-08-19T11:34:14;20.40;99.90
15087;DHT22;7642;48.478;8.952;2022-08-19T11:36:42;20.30;99.90
15087;DHT22;7642;48.478;8.952;2022-08-19T11:39:10;20.40;99.90
15087;DHT22;7642;48.478;8.952;2022-08-19T11:41:36;20.40;99.90
15087;DHT22;7642;48.478;8.952;2022-08-19T11:44:02;20.40;99.90
15087;DHT22;7642;48.478;8.952;2022-08-19T11:46:30;20.40;99.90
15087;DHT22;7642;48.478;8.952;2022-08-19T11:49:00;20.40;99.90
15087;DHT22;7642;48.478;8.952;2022-08-19T11:51:27;20.30;99.90
15087;DHT22;7642;48.478;8.952;2022-08-19T11:53:54;20.20;99.90
15087;DHT22;7642;48.478;8.952;2022-08-19T11:56:20;20.20;99.90
15087;DHT22;7642;48.478;8.952;2022-08-19T11:58:47;20.10;99.90
15087;DHT22;7642;48.478;8.952;2022-08-19T12:01:15;20.10;99.90
15087;DHT22;7642;48.478;8.952;2022-08-19T12:03:43;20.60;99.90
15087;DHT22;7642;48.478;8.952;2022-08-19T12:06:13;20.00;99.90
15087;DHT22;7642;48.478;8.952;2022-08-19T12:08:40;19.70;99.90
15087;DHT22;7642;48.478;8.952;2022-08-19T12:11:06;19.70;99.90
15087;DHT22;7642;48.478;8.952;2022-08-19T12:13:33;19.50;99.90
15087;DHT22;7642;48.478;8.952;2022-08-19T12:15:59;19.90;99.90
15087;DHT22;7642;48.478;8.952;2022-08-19T12:18:25;19.30;99.90
15087;DHT22;7642;48.478;8.952;2022-08-19T12:20:52;19.20;99.90
15087;DHT22;7642;48.478;8.952;2022-08-19T12:23:20;19.30;99.90
15087;DHT22;7642;48.478;8.952;2022-08-19T12:25:48;19.30;99.90
15087;DHT22;7642;48.478;8.952;2022-08-19T12:28:18;19.40;99.90
15087;DHT22;7642;48.478;8.952;2022-08-19T12:30:44;19.40;99.90
15087;DHT22;7642;48.478;8.952;2022-08-19T12:33:10;19.40;99.90
15087;DHT22;7642;48.478;8.952;2022-08-19T12:35:43;19.40;99.90
15087;DHT22;7642;48.478;8.952;2022-08-19T12:38:10;19.30;99.90
15087;DHT22;7642;48.478;8.952;2022-08-19T12:40:36;19.50;99.90
15087;DHT22;7642;48.478;8.952;2022-08-19T12:43:02;19.50;99.90
15087;DHT22;7642;48.478;8.952;2022-08-19T12:45:27;19.50;99.90
15087;DHT22;7642;48.478;8.952;2022-08-19T12:47:54;19.50;99.90
15087;DHT22;7642;48.478;8.952;2022-08-19T12:50:19;19.50;99.90
15087;DHT22;7642;48.478;8.952;2022-08-19T12:52:47;19.60;99.90
15087;DHT22;7642;48.478;8.952;2022-08-19T12:55:14;19.50;99.90
15087;DHT22;7642;48.478;8.952;2022-08-19T12:57:40;19.60;99.90
15087;DHT22;7642;48.478;8.952;2022-08-19T13:00:11;19.50;99.90
15087;DHT22;7642;48.478;8.952;2022-08-19T13:02:39;19.60;99.90
15087;DHT22;7642;48.478;8.952;2022-08-19T13:05:07;19.60;99.90
15087;DHT22;7642;48.478;8.952;2022-08-19T13:07:34;19.40;99.90
15087;DHT22;7642;48.478;8.952;2022-08-19T13:10:00;19.50;99.90
15087;DHT22;7642;48.478;8.952;2022-08-19T13:12:26;19.50;99.90
15087;DHT22;7642;48.478;8.952;2022-08-19T13:14:52;19.50;99.90
15087;DHT22;7642;48.478;8.952;2022-08-19T13:17:19;19.60;99.90
15087;DHT22;7642;48.478;8.952;2022-08-19T13:19:44;19.60;99.90
15087;DHT22;7642;48.478;8.952;2022-08-19T13:22:10;19.60;99.90
15087;DHT22;7642;48.478;8.952;2022-08-19T13:24:37;19.70;99.90
15087;DHT22;7642;48.478;8.952;2022-08-19T13:27:03;19.70;99.90
15087;DHT22;7642;48.478;8.952;2022-08-19T13:29:28;19.70;99.90
15087;DHT22;7642;48.478;8.952;2022-08-19T13:32:12;19.70;99.90
15087;DHT22;7642;48.478;8.952;2022-08-19T13:34:56;19.70;99.90
15087;DHT22;7642;48.478;8.952;2022-08-19T13:37:22;19.70;99.90
15087;DHT22;7642;48.478;8.952;2022-08-19T13:40:07;20.60;99.90
15087;DHT22;7642;48.478;8.952;2022-08-19T13:42:41;19.80;99.90
15087;DHT22;7642;48.478;8.952;2022-08-19T13:45:08;19.90;99.90
15087;DHT22;7642;48.478;8.952;2022-08-19T13:47:35;19.90;99.90
15087;DHT22;7642;48.478;8.952;2022-08-19T13:50:04;20.00;99.90
15087;DHT22;7642;48.478;8.952;2022-08-19T13:52:30;20.00;99.90
15087;DHT22;7642;48.478;8.952;2022-08-19T13:54:55;20.10;99.90
15087;DHT22;7642;48.478;8.952;2022-08-19T13:57:22;20.20;99.90
15087;DHT22;7642;48.478;8.952;2022-08-19T13:59:47;20.20;99.90
15087;DHT22;7642;48.478;8.952;2022-08-19T14:02:13;20.40;99.90
15087;DHT22;7642;48.478;8.952;2022-08-19T14:04:38;20.50;99.90
15087;DHT22;7642;48.478;8.952;2022-08-19T14:07:04;20.50;99.90
15087;DHT22;7642;48.478;8.952;2022-08-19T14:09:30;21.10;99.90
15087;DHT22;7642;48.478;8.952;2022-08-19T14:11:56;21.10;99.90
15087;DHT22;7642;48.478;8.952;2022-08-19T14:14:21;21.60;99.90
15087;DHT22;7642;48.478;8.952;2022-08-19T14:16:48;21.80;99.90
15087;DHT22;7642;48.478;8.952;2022-08-19T14:19:13;21.70;99.90
15087;DHT22;7642;48.478;8.952;2022-08-19T14:21:39;21.70;99.90
15087;DHT22;7642;48.478;8.952;2022-08-19T14:24:06;21.70;99.90
15087;DHT22;7642;48.478;8.952;2022-08-19T14:26:32;21.70;99.90
15087;DHT22;7642;48.478;8.952;2022-08-19T14:28:58;21.70;99.90
15087;DHT22;7642;48.478;8.952;2022-08-19T14:31:24;21.80;99.90
15087;DHT22;7642;48.478;8.952;2022-08-19T14:33:50;22.00;99.90
15087;DHT22;7642;48.478;8.952;2022-08-19T14:36:17;22.00;99.90
15087;DHT22;7642;48.478;8.952;2022-08-19T14:38:43;22.30;99.90
15087;DHT22;7642;48.478;8.952;2022-08-19T14:41:17;22.60;99.90
15087;DHT22;7642;48.478;8.952;2022-08-19T14:43:46;22.80;99.90
15087;DHT22;7642;48.478;8.952;2022-08-19T14:46:17;23.00;99.90
15087;DHT22;7642;48.478;8.952;2022-08-19T14:48:44;23.20;99.90
15087;DHT22;7642;48.478;8.952;2022-08-19T14:51:10;23.60;99.90
15087;DHT22;7642;48.478;8.952;2022-08-19T14:53:37;23.80;99.90
15087;DHT22;7642;48.478;8.952;2022-08-19T14:56:11;24.00;99.90
15087;DHT22;7642;48.478;8.952;2022-08-19T14:58:39;24.10;99.90
15087;DHT22;7642;48.478;8.952;2022-08-19T15:01:08;24.30;99.90
15087;DHT22;7642;48.478;8.952;2022-08-19T15:03:35;24.40;99.90
15087;DHT22;7642;48.478;8.952;2022-08-19T15:06:02;23.90;99.90
15087;DHT22;7642;48.478;8.952;2022-08-19T15:08:29;23.90;99.90
15087;DHT22;7642;48.478;8.952;2022-08-19T15:10:56;24.50;99.90
15087;DHT22;7642;48.478;8.952;2022-08-19T15:13:23;24.40;99.90
15087;DHT22;7642;48.478;8.952;2022-08-19T15:15:50;24.50;99.90
15087;DHT22;7642;48.478;8.952;2022-08-19T15:18:17;24.60;99.90
15087;DHT22;7642;48.478;8.952;2022-08-19T15:20:42;24.60;99.90
15087;DHT22;7642;48.478;8.952;2022-08-19T15:23:09;24.50;99.90
15087;DHT22;7642;48.478;8.952;2022-08-19T15:25:36;24.40;99.90
15087;DHT22;7642;48.478;8.952;2022-08-19T15:28:02;24.40;99.90
15087;DHT22;7642;48.478;8.952;2022-08-19T15:30:28;24.40;99.90
15087;DHT22;7642;48.478;8.952;2022-08-19T15:32:55;24.40;99.90
15087;DHT22;7642;48.478;8.952;2022-08-19T15:35:22;24.30;99.90
15087;DHT22;7642;48.478;8.952;2022-08-19T15:37:49;24.20;99.90
15087;DHT22;7642;48.478;8.952;2022-08-19T15:40:15;24.30;99.90
15087;DHT22;7642;48.478;8.952;2022-08-19T15:42:41;24.00;99.90
15087;DHT22;7642;48.478;8.952;2022-08-19T15:45:08;23.90;99.90
15087;DHT22;7642;48.478;8.952;2022-08-19T15:47:35;23.80;99.90
15087;DHT22;7642;48.478;8.952;2022-08-19T15:50:16;24.00;99.90
15087;DHT22;7642;48.478;8.952;2022-08-19T15:52:52;23.70;99.90
15087;DHT22;7642;48.478;8.952;2022-08-19T15:55:21;23.70;99.90
15087;DHT22;7642;48.478;8.952;2022-08-19T15:57:47;23.80;99.90